Time;durP1;ratioP1;P1;durP2;ratioP2;P2;SDS_P1;SDS_P2;PMS_P1;PMS_P2;Temp;Humidity;BMP_temperature;BMP_pressure;BME280_temperature;BME280_humidity;BME280_pressure;Samples;Min_cycle;Max_cycle;Signal;HPM_P1;HPM_P2
2022/05/26 00:01:16;;;;;;;;;;;12.50;99.90;;;;;;5085507;28;19928;-60
2022/05/26 00:03:42;;;;;;;;;;;12.50;99.90;;;;;;5086556;28;19924;-61
2022/05/26 00:06:09;;;;;;;;;;;12.50;99.90;;;;;;5078256;28;19925;-60
2022/05/26 00:08:36;;;;;;;;;;;12.50;99.90;;;;;;5086071;28;19956;-61
2022/05/26 00:11:03;;;;;;;;;;;12.40;99.90;;;;;;5077884;28;19920;-60
2022/05/26 00:13:29;;;;;;;;;;;12.40;99.90;;;;;;5085179;28;19924;-59
2022/05/26 00:15:54;;;;;;;;;;;12.40;99.90;;;;;;5081185;28;19963;-62
2022/05/26 00:18:20;;;;;;;;;;;12.40;99.90;;;;;;5083637;28;20356;-62
2022/05/26 00:20:45;;;;;;;;;;;12.40;99.90;;;;;;5097752;28;19933;-61
2022/05/26 00:23:11;;;;;;;;;;;12.50;99.90;;;;;;5082430;28;19935;-60
2022/05/26 00:25:37;;;;;;;;;;;12.50;99.90;;;;;;5074412;28;19924;-62
2022/05/26 00:28:03;;;;;;;;;;;12.40;99.90;;;;;;5080218;28;19928;-61
2022/05/26 00:30:28;;;;;;;;;;;12.60;99.90;;;;;;5081556;28;19970;-62
2022/05/26 00:32:53;;;;;;;;;;;12.50;99.90;;;;;;5074017;28;19924;-61
2022/05/26 00:35:19;;;;;;;;;;;12.60;99.90;;;;;;5087243;28;20018;-60
2022/05/26 00:37:45;;;;;;;;;;;12.50;99.90;;;;;;5083049;28;19927;-60
2022/05/26 00:40:14;;;;;;;;;;;12.60;99.90;;;;;;5081139;28;19920;-61
2022/05/26 00:42:40;;;;;;;;;;;12.50;99.90;;;;;;5075657;28;19920;-60
2022/05/26 00:45:06;;;;;;;;;;;12.70;99.90;;;;;;5071965;28;19935;-61
2022/05/26 00:47:33;;;;;;;;;;;12.70;99.90;;;;;;5078827;28;19924;-62
2022/05/26 00:50:02;;;;;;;;;;;12.50;99.90;;;;;;5073950;28;19967;-61
2022/05/26 00:52:30;;;;;;;;;;;12.50;99.90;;;;;;5080367;28;19921;-60
2022/05/26 00:54:59;;;;;;;;;;;12.70;99.90;;;;;;5079316;28;20015;-60
2022/05/26 00:57:29;;;;;;;;;;;12.60;99.90;;;;;;5085850;28;19962;-61
2022/05/26 01:00:06;;;;;;;;;;;12.70;99.90;;;;;;5079274;28;19928;-60
2022/05/26 01:02:37;;;;;;;;;;;12.70;99.90;;;;;;5082305;28;20023;-60
2022/05/26 01:05:12;;;;;;;;;;;12.80;99.90;;;;;;5082078;28;19932;-61
2022/05/26 01:07:38;;;;;;;;;;;12.80;99.90;;;;;;5079581;28;19954;-59
2022/05/26 01:10:05;;;;;;;;;;;12.70;99.90;;;;;;5087673;28;19959;-60
2022/05/26 01:12:30;;;;;;;;;;;12.70;99.90;;;;;;5077986;28;19924;-62
2022/05/26 01:15:02;;;;;;;;;;;12.70;99.90;;;;;;5082764;28;19920;-60
2022/05/26 01:17:28;;;;;;;;;;;12.70;99.90;;;;;;5090117;28;20027;-60
2022/05/26 01:20:07;;;;;;;;;;;12.80;99.90;;;;;;5081434;28;20014;-61
2022/05/26 01:22:45;;;;;;;;;;;12.90;99.90;;;;;;5076399;28;19928;-60
2022/05/26 01:25:10;;;;;;;;;;;12.80;99.90;;;;;;5071892;28;19924;-62
2022/05/26 01:27:44;;;;;;;;;;;12.90;99.90;;;;;;5078996;28;19920;-60
2022/05/26 01:30:48;;;;;;;;;;;12.80;99.90;;;;;;5078830;28;19920;-60
2022/05/26 01:33:13;;;;;;;;;;;12.90;99.90;;;;;;5020220;28;19929;-61
2022/05/26 01:35:55;;;;;;;;;;;12.90;99.90;;;;;;5020467;28;19951;-61
2022/05/26 01:38:30;;;;;;;;;;;12.90;99.90;;;;;;5054873;28;20080;-60
2022/05/26 01:41:01;;;;;;;;;;;13.00;99.90;;;;;;5072225;28;19965;-62
2022/05/26 01:43:27;;;;;;;;;;;12.90;99.90;;;;;;5084016;28;19955;-60
2022/05/26 01:45:59;;;;;;;;;;;13.00;99.90;;;;;;5078039;28;19968;-60
2022/05/26 01:48:29;;;;;;;;;;;12.90;99.90;;;;;;5076746;28;19943;-60
2022/05/26 01:50:54;;;;;;;;;;;12.80;99.90;;;;;;5076335;28;20019;-60
2022/05/26 01:53:20;;;;;;;;;;;12.90;99.90;;;;;;5075569;28;19992;-60
2022/05/26 01:56:04;;;;;;;;;;;12.70;99.90;;;;;;5074349;28;20053;-60
2022/05/26 01:58:37;;;;;;;;;;;12.70;99.90;;;;;;5082451;28;19920;-61
2022/05/26 02:01:07;;;;;;;;;;;12.70;99.90;;;;;;5071081;28;19935;-61
2022/05/26 02:03:33;;;;;;;;;;;12.70;99.90;;;;;;5079677;28;19924;-61
2022/05/26 02:06:05;;;;;;;;;;;12.70;99.90;;;;;;5083882;28;19935;-61
2022/05/26 02:08:36;;;;;;;;;;;12.70;99.90;;;;;;5081027;28;19981;-61
2022/05/26 02:11:09;;;;;;;;;;;12.80;99.90;;;;;;5075647;28;19924;-62
2022/05/26 02:13:43;;;;;;;;;;;12.60;99.90;;;;;;5075094;28;19928;-61
2022/05/26 02:16:15;;;;;;;;;;;12.70;99.90;;;;;;5071547;28;19924;-62
2022/05/26 02:18:46;;;;;;;;;;;12.70;99.90;;;;;;5072754;28;20015;-61
2022/05/26 02:21:15;;;;;;;;;;;12.70;99.90;;;;;;5075522;28;20376;-62
2022/05/26 02:23:45;;;;;;;;;;;12.80;99.90;;;;;;5069374;28;19932;-61
2022/05/26 02:26:13;;;;;;;;;;;12.70;99.90;;;;;;5077564;28;20367;-61
2022/05/26 02:31:24;;;;;;;;;;;12.80;99.90;;;;;;5075788;28;19947;-60
2022/05/26 02:33:52;;;;;;;;;;;12.80;99.90;;;;;;5078726;28;20016;-63
2022/05/26 02:36:17;;;;;;;;;;;12.80;99.90;;;;;;5070828;28;19965;-62
2022/05/26 02:38:43;;;;;;;;;;;12.90;99.90;;;;;;5076343;28;20359;-62
2022/05/26 02:41:08;;;;;;;;;;;12.80;99.90;;;;;;5073684;28;19933;-61
2022/05/26 02:43:34;;;;;;;;;;;12.90;99.90;;;;;;5075116;28;20280;-60
2022/05/26 02:45:59;;;;;;;;;;;12.90;99.90;;;;;;5073823;28;19925;-61
2022/05/26 02:48:43;;;;;;;;;;;12.90;99.90;;;;;;5070973;28;19973;-60
2022/05/26 02:51:15;;;;;;;;;;;12.90;99.90;;;;;;5081717;28;19927;-62
2022/05/26 02:53:43;;;;;;;;;;;12.90;99.90;;;;;;5071043;28;21918;-61
2022/05/26 02:56:17;;;;;;;;;;;12.90;99.90;;;;;;5075352;28;19932;-60
2022/05/26 02:58:57;;;;;;;;;;;12.90;99.90;;;;;;5079445;28;19924;-61
2022/05/26 03:01:27;;;;;;;;;;;12.90;99.90;;;;;;5081175;28;19955;-60
2022/05/26 03:03:57;;;;;;;;;;;13.00;99.90;;;;;;5075246;28;20393;-61
2022/05/26 03:06:26;;;;;;;;;;;12.90;99.90;;;;;;5082554;28;19997;-62
2022/05/26 03:08:52;;;;;;;;;;;13.00;99.90;;;;;;5085918;28;20483;-61
2022/05/26 03:11:20;;;;;;;;;;;12.90;99.90;;;;;;5086737;28;19942;-60
2022/05/26 03:13:46;;;;;;;;;;;12.80;99.90;;;;;;5075100;28;20016;-61
2022/05/26 03:16:11;;;;;;;;;;;12.80;99.90;;;;;;5093026;28;20110;-62
2022/05/26 03:18:37;;;;;;;;;;;13.00;99.90;;;;;;5070751;28;19928;-60
2022/05/26 03:21:04;;;;;;;;;;;13.00;99.90;;;;;;5072233;28;19928;-62
2022/05/26 03:23:30;;;;;;;;;;;12.80;99.90;;;;;;5084133;28;19924;-60
2022/05/26 03:25:57;;;;;;;;;;;12.90;99.90;;;;;;5080203;28;19924;-61
2022/05/26 03:28:26;;;;;;;;;;;12.90;99.90;;;;;;5082862;28;19989;-62
2022/05/26 03:30:51;;;;;;;;;;;12.90;99.90;;;;;;5077754;28;20007;-61
2022/05/26 03:33:17;;;;;;;;;;;12.90;99.90;;;;;;5074199;28;20058;-62
2022/05/26 03:41:10;;;;;;;;;;;12.90;99.90;;;;;;5080561;28;19924;-60
2022/05/26 03:43:44;;;;;;;;;;;12.80;99.90;;;;;;5072214;28;19924;-61
2022/05/26 03:46:09;;;;;;;;;;;12.90;99.90;;;;;;5071748;28;20319;-61
2022/05/26 03:48:36;;;;;;;;;;;12.80;99.90;;;;;;5078303;28;20003;-61
2022/05/26 03:51:02;;;;;;;;;;;12.80;99.90;;;;;;5078467;28;19927;-61
2022/05/26 03:53:27;;;;;;;;;;;12.80;99.90;;;;;;5076917;28;19924;-60
2022/05/26 03:55:53;;;;;;;;;;;12.70;99.90;;;;;;5084182;28;19924;-60
2022/05/26 03:58:18;;;;;;;;;;;12.80;99.90;;;;;;5088603;28;19928;-62
2022/05/26 04:00:44;;;;;;;;;;;12.70;99.90;;;;;;5081090;28;19924;-62
2022/05/26 04:03:09;;;;;;;;;;;12.70;99.90;;;;;;5079814;28;19977;-61
2022/05/26 04:05:35;;;;;;;;;;;12.70;99.90;;;;;;5086817;28;20328;-61
2022/05/26 04:08:01;;;;;;;;;;;12.70;99.90;;;;;;5089145;28;19920;-61
2022/05/26 04:10:26;;;;;;;;;;;12.60;99.90;;;;;;5075755;28;20062;-61
2022/05/26 04:12:52;;;;;;;;;;;12.60;99.90;;;;;;5077711;28;19956;-61
2022/05/26 04:15:18;;;;;;;;;;;12.60;99.90;;;;;;5073141;28;19924;-61
2022/05/26 04:17:43;;;;;;;;;;;12.70;99.90;;;;;;5103757;28;19920;-60
2022/05/26 04:20:10;;;;;;;;;;;12.60;99.90;;;;;;5083401;28;20016;-63
2022/05/26 04:22:36;;;;;;;;;;;12.60;99.90;;;;;;5078719;28;19935;-63
2022/05/26 04:25:02;;;;;;;;;;;12.60;99.90;;;;;;5073861;28;19987;-61
2022/05/26 04:27:29;;;;;;;;;;;12.70;99.90;;;;;;5086880;28;20280;-60
2022/05/26 04:29:55;;;;;;;;;;;12.80;99.90;;;;;;5075113;28;20340;-61
2022/05/26 04:32:21;;;;;;;;;;;12.80;99.90;;;;;;5080442;28;19928;-61
2022/05/26 04:34:48;;;;;;;;;;;12.70;99.90;;;;;;5081493;28;19978;-61
2022/05/26 04:37:14;;;;;;;;;;;12.80;99.90;;;;;;5080110;28;20452;-61
2022/05/26 04:39:40;;;;;;;;;;;12.60;99.90;;;;;;5087251;28;20379;-62
2022/05/26 04:42:06;;;;;;;;;;;12.60;99.90;;;;;;5085352;28;19925;-61
2022/05/26 04:44:33;;;;;;;;;;;12.60;99.90;;;;;;5086083;28;20376;-60
2022/05/26 04:46:59;;;;;;;;;;;12.60;99.90;;;;;;5078507;28;19975;-61
2022/05/26 04:49:24;;;;;;;;;;;12.60;99.90;;;;;;5084535;28;20333;-61
2022/05/26 04:51:50;;;;;;;;;;;12.70;99.90;;;;;;5077933;28;19925;-61
2022/05/26 04:54:16;;;;;;;;;;;12.60;99.90;;;;;;5073046;28;19924;-62
2022/05/26 04:56:41;;;;;;;;;;;12.70;99.90;;;;;;5083524;28;19963;-61
2022/05/26 04:59:07;;;;;;;;;;;12.60;99.90;;;;;;5073606;28;20007;-61
2022/05/26 05:01:33;;;;;;;;;;;12.80;99.90;;;;;;5079018;28;19924;-62
2022/05/26 05:04:00;;;;;;;;;;;12.80;99.90;;;;;;5070956;28;20453;-61
2022/05/26 05:06:25;;;;;;;;;;;12.80;99.90;;;;;;5078269;28;19928;-62
2022/05/26 05:08:51;;;;;;;;;;;12.90;99.90;;;;;;5074740;28;19930;-60
2022/05/26 05:11:16;;;;;;;;;;;12.90;99.90;;;;;;5075334;28;19928;-61
2022/05/26 05:13:42;;;;;;;;;;;13.00;99.90;;;;;;5081136;28;19924;-62
2022/05/26 05:16:15;;;;;;;;;;;13.10;99.90;;;;;;5076695;28;19938;-63
2022/05/26 05:18:41;;;;;;;;;;;13.10;99.90;;;;;;5086479;28;19924;-62
2022/05/26 05:21:09;;;;;;;;;;;13.10;99.90;;;;;;5089784;28;20508;-62
2022/05/26 05:23:40;;;;;;;;;;;13.10;99.90;;;;;;5085562;28;19973;-62
2022/05/26 05:26:08;;;;;;;;;;;13.10;99.90;;;;;;5089005;28;19930;-62
2022/05/26 05:28:35;;;;;;;;;;;13.20;99.90;;;;;;5082401;28;19920;-64
2022/05/26 05:31:07;;;;;;;;;;;13.20;99.90;;;;;;5080913;28;19927;-62
2022/05/26 05:33:35;;;;;;;;;;;13.20;99.90;;;;;;5074071;28;19977;-62
2022/05/26 05:36:03;;;;;;;;;;;13.30;99.90;;;;;;5086841;28;20280;-64
2022/05/26 05:38:29;;;;;;;;;;;13.40;99.90;;;;;;5079050;28;20462;-61
2022/05/26 05:40:55;;;;;;;;;;;13.50;99.90;;;;;;5073531;28;19920;-62
2022/05/26 05:43:21;;;;;;;;;;;13.50;99.90;;;;;;5073446;28;19920;-61
2022/05/26 05:45:46;;;;;;;;;;;13.60;99.90;;;;;;5069423;28;19997;-62
2022/05/26 05:48:12;;;;;;;;;;;13.50;99.90;;;;;;5084150;28;19928;-64
2022/05/26 05:50:37;;;;;;;;;;;13.60;99.90;;;;;;5084642;28;19997;-62
2022/05/26 05:53:03;;;;;;;;;;;13.70;99.90;;;;;;5075069;28;19924;-62
2022/05/26 05:55:29;;;;;;;;;;;13.90;99.90;;;;;;5075602;28;19928;-63
2022/05/26 05:57:55;;;;;;;;;;;14.10;99.90;;;;;;5077286;28;19920;-62
2022/05/26 06:00:20;;;;;;;;;;;14.30;99.90;;;;;;5083387;28;19930;-62
2022/05/26 06:02:46;;;;;;;;;;;14.30;99.90;;;;;;5078669;28;19920;-63
2022/05/26 06:05:11;;;;;;;;;;;14.20;99.90;;;;;;5078111;28;20029;-62
2022/05/26 06:07:39;;;;;;;;;;;14.40;99.90;;;;;;5073682;28;19925;-62
2022/05/26 06:10:10;;;;;;;;;;;14.30;99.90;;;;;;5071790;28;20276;-63
2022/05/26 06:12:36;;;;;;;;;;;14.40;99.90;;;;;;5074767;28;19924;-61
2022/05/26 06:15:03;;;;;;;;;;;14.40;99.90;;;;;;5080653;28;19924;-64
2022/05/26 06:17:28;;;;;;;;;;;14.40;99.90;;;;;;5079031;28;19935;-64
2022/05/26 06:19:54;;;;;;;;;;;14.30;99.90;;;;;;5078542;28;19920;-62
2022/05/26 06:22:20;;;;;;;;;;;14.50;99.90;;;;;;5073514;28;20300;-61
2022/05/26 06:24:46;;;;;;;;;;;14.30;99.90;;;;;;5079422;28;19986;-62
2022/05/26 06:29:58;;;;;;;;;;;14.60;99.90;;;;;;5085586;28;20418;-62
2022/05/26 06:37:52;;;;;;;;;;;15.00;99.90;;;;;;5093143;28;20359;-63
2022/05/26 06:40:18;;;;;;;;;;;15.00;99.90;;;;;;5096183;28;19924;-64
2022/05/26 06:42:44;;;;;;;;;;;15.10;99.90;;;;;;5087138;28;19928;-63
2022/05/26 06:45:11;;;;;;;;;;;15.10;99.90;;;;;;5087746;28;19924;-62
2022/05/26 06:47:36;;;;;;;;;;;15.30;99.90;;;;;;5085300;28;19924;-62
2022/05/26 06:50:02;;;;;;;;;;;15.80;99.90;;;;;;5093881;28;19924;-63
2022/05/26 06:52:28;;;;;;;;;;;15.90;99.90;;;;;;5085258;28;19943;-62
2022/05/26 06:54:54;;;;;;;;;;;16.00;99.90;;;;;;5088088;28;19920;-62
2022/05/26 06:57:19;;;;;;;;;;;15.60;99.90;;;;;;5095500;28;19934;-63
2022/05/26 06:59:45;;;;;;;;;;;15.70;99.90;;;;;;5092624;28;20370;-62
2022/05/26 07:02:11;;;;;;;;;;;15.40;99.90;;;;;;5086388;28;19925;-62
2022/05/26 07:04:37;;;;;;;;;;;15.40;99.90;;;;;;5091619;28;19981;-63
2022/05/26 07:07:03;;;;;;;;;;;16.00;99.90;;;;;;5090445;28;20399;-62
2022/05/26 07:09:29;;;;;;;;;;;16.30;99.90;;;;;;5075898;28;19960;-62
2022/05/26 07:11:54;;;;;;;;;;;16.60;99.90;;;;;;5082254;28;19920;-62
2022/05/26 07:14:20;;;;;;;;;;;16.70;99.90;;;;;;5092570;28;19935;-64
2022/05/26 07:16:45;;;;;;;;;;;16.90;99.90;;;;;;5074897;28;19921;-63
2022/05/26 07:19:14;;;;;;;;;;;16.70;99.90;;;;;;5076164;28;19927;-63
2022/05/26 07:21:43;;;;;;;;;;;16.60;99.90;;;;;;5092801;28;19923;-64
2022/05/26 07:24:09;;;;;;;;;;;16.40;97.20;;;;;;5085110;28;19990;-62
2022/05/26 07:26:34;;;;;;;;;;;16.50;99.90;;;;;;5081490;28;20010;-62
2022/05/26 07:29:00;;;;;;;;;;;16.50;99.70;;;;;;5076930;28;19963;-64
2022/05/26 07:31:26;;;;;;;;;;;16.60;99.90;;;;;;5078998;28;20414;-62
2022/05/26 07:33:53;;;;;;;;;;;16.60;99.90;;;;;;5084729;28;19924;-62
2022/05/26 07:41:49;;;;;;;;;;;17.00;95.80;;;;;;5095351;28;20013;-63
2022/05/26 07:44:16;;;;;;;;;;;17.20;92.50;;;;;;5083469;28;19927;-62
2022/05/26 07:46:42;;;;;;;;;;;17.20;92.60;;;;;;5086893;28;20018;-63
2022/05/26 07:49:08;;;;;;;;;;;16.90;90.60;;;;;;5093313;28;20429;-62
2022/05/26 07:51:33;;;;;;;;;;;17.00;93.40;;;;;;5094115;28;20007;-62
2022/05/26 07:54:01;;;;;;;;;;;17.00;91.40;;;;;;5077046;28;20007;-63
2022/05/26 07:56:32;;;;;;;;;;;17.00;90.50;;;;;;5078856;28;19925;-63
2022/05/26 07:58:57;;;;;;;;;;;16.90;90.40;;;;;;5095022;28;20283;-62
2022/05/26 08:01:23;;;;;;;;;;;17.20;90.20;;;;;;5080749;28;19925;-62
2022/05/26 08:03:48;;;;;;;;;;;17.20;89.80;;;;;;5071676;28;20023;-62
2022/05/26 08:06:14;;;;;;;;;;;17.50;88.20;;;;;;5081437;28;20326;-62
2022/05/26 08:08:39;;;;;;;;;;;18.00;85.90;;;;;;5074645;28;19921;-62
2022/05/26 08:11:05;;;;;;;;;;;18.10;82.70;;;;;;5075138;28;19924;-63
2022/05/26 08:13:31;;;;;;;;;;;18.10;78.60;;;;;;5091776;28;19973;-62
2022/05/26 08:15:57;;;;;;;;;;;18.30;85.30;;;;;;5092553;28;19926;-62
2022/05/26 08:18:23;;;;;;;;;;;18.50;84.80;;;;;;5094407;28;19924;-63
2022/05/26 08:20:49;;;;;;;;;;;18.90;83.60;;;;;;5093892;28;19965;-63
2022/05/26 08:23:15;;;;;;;;;;;19.10;83.60;;;;;;5067398;28;20388;-63
2022/05/26 08:25:40;;;;;;;;;;;19.10;76.30;;;;;;5074475;28;20011;-62
2022/05/26 08:28:06;;;;;;;;;;;19.10;76.20;;;;;;5088934;28;19920;-63
2022/05/26 08:30:31;;;;;;;;;;;19.20;72.50;;;;;;5088365;28;19928;-63
2022/05/26 08:32:57;;;;;;;;;;;19.40;70.20;;;;;;5085531;28;20352;-63
2022/05/26 08:35:23;;;;;;;;;;;19.70;72.30;;;;;;5083670;28;19974;-64
2022/05/26 08:37:48;;;;;;;;;;;20.50;65.90;;;;;;5086724;28;19921;-62
2022/05/26 08:40:24;;;;;;;;;;;20.70;66.90;;;;;;5094464;28;19945;-63
2022/05/26 08:42:50;;;;;;;;;;;21.20;67.40;;;;;;5075726;28;19920;-64
2022/05/26 08:45:15;;;;;;;;;;;21.80;63.60;;;;;;5086207;28;19928;-65
2022/05/26 08:47:44;;;;;;;;;;;22.00;61.40;;;;;;5082411;28;19960;-63
2022/05/26 08:50:11;;;;;;;;;;;22.30;64.30;;;;;;5088906;28;20379;-63
2022/05/26 08:52:42;;;;;;;;;;;22.30;57.20;;;;;;5091570;28;19920;-65
2022/05/26 08:55:11;;;;;;;;;;;22.70;54.80;;;;;;5081675;28;20368;-63
2022/05/26 08:57:46;;;;;;;;;;;22.30;50.80;;;;;;5082522;28;19928;-64
2022/05/26 09:00:14;;;;;;;;;;;22.60;51.40;;;;;;5088048;28;19959;-64
2022/05/26 09:02:40;;;;;;;;;;;22.70;52.80;;;;;;5072589;28;20344;-63
2022/05/26 09:05:16;;;;;;;;;;;23.10;52.80;;;;;;5072604;28;19920;-63
2022/05/26 09:13:29;;;;;;;;;;;23.60;51.40;;;;;;5071479;28;19920;-65
2022/05/26 09:15:54;;;;;;;;;;;24.00;47.80;;;;;;5080624;28;19924;-64
2022/05/26 09:18:21;;;;;;;;;;;24.10;49.50;;;;;;5083311;28;19978;-65
2022/05/26 09:20:48;;;;;;;;;;;24.60;51.70;;;;;;5084775;28;20007;-64
2022/05/26 09:23:24;;;;;;;;;;;24.80;49.50;;;;;;5078189;28;20039;-65
2022/05/26 09:25:54;;;;;;;;;;;24.00;47.80;;;;;;5090228;28;20023;-64
2022/05/26 09:28:48;;;;;;;;;;;23.50;47.00;;;;;;5091588;28;19920;-63
2022/05/26 09:31:32;;;;;;;;;;;23.00;50.00;;;;;;5089094;28;19935;-64
2022/05/26 09:34:00;;;;;;;;;;;22.40;53.70;;;;;;5070536;28;19942;-63
2022/05/26 09:36:30;;;;;;;;;;;21.60;55.60;;;;;;5081949;28;20022;-63
2022/05/26 09:38:57;;;;;;;;;;;21.20;55.50;;;;;;5092941;28;20015;-63
2022/05/26 09:41:23;;;;;;;;;;;21.20;55.50;;;;;;5088961;28;20283;-64
2022/05/26 09:43:50;;;;;;;;;;;22.00;56.70;;;;;;5086474;28;19920;-64
2022/05/26 09:46:16;;;;;;;;;;;22.30;53.90;;;;;;5091588;28;19924;-63
2022/05/26 09:48:44;;;;;;;;;;;22.50;49.00;;;;;;5085471;28;20571;-63
2022/05/26 09:51:24;;;;;;;;;;;23.00;51.70;;;;;;5085458;28;19931;-65
2022/05/26 09:53:51;;;;;;;;;;;23.20;55.00;;;;;;5070521;28;19929;-63
2022/05/26 09:56:26;;;;;;;;;;;23.30;55.10;;;;;;5092709;28;19929;-63
2022/05/26 09:58:51;;;;;;;;;;;23.20;51.70;;;;;;5092744;28;19927;-64
2022/05/26 10:01:23;;;;;;;;;;;23.40;49.30;;;;;;5083560;28;19921;-64
2022/05/26 10:04:04;;;;;;;;;;;23.10;50.50;;;;;;5073929;28;19920;-63
2022/05/26 10:06:32;;;;;;;;;;;22.30;49.30;;;;;;5084425;28;20011;-64
2022/05/26 10:08:57;;;;;;;;;;;21.70;50.40;;;;;;5072186;28;20401;-62
2022/05/26 10:11:22;;;;;;;;;;;21.60;52.20;;;;;;5085767;28;19974;-64
2022/05/26 10:14:14;;;;;;;;;;;21.10;52.60;;;;;;5079330;28;19921;-63
2022/05/26 10:16:43;;;;;;;;;;;22.30;52.80;;;;;;5083179;28;19920;-63
2022/05/26 10:19:14;;;;;;;;;;;23.70;49.20;;;;;;5080844;28;20359;-64
2022/05/26 10:22:00;;;;;;;;;;;25.20;51.20;;;;;;5082372;28;19924;-64
2022/05/26 10:24:41;;;;;;;;;;;25.70;44.50;;;;;;5091262;28;19927;-64
2022/05/26 10:27:13;;;;;;;;;;;25.10;47.30;;;;;;5091294;28;19986;-64
2022/05/26 10:29:45;;;;;;;;;;;23.60;46.20;;;;;;5083203;28;20441;-64
2022/05/26 10:32:22;;;;;;;;;;;23.10;46.30;;;;;;5082728;28;20371;-64
2022/05/26 10:34:58;;;;;;;;;;;23.90;46.90;;;;;;5090204;28;19923;-63
2022/05/26 10:37:36;;;;;;;;;;;24.00;46.50;;;;;;5084295;28;19920;-64
2022/05/26 10:40:20;;;;;;;;;;;23.90;49.00;;;;;;5084055;28;19928;-63
2022/05/26 10:42:48;;;;;;;;;;;23.60;47.40;;;;;;5081638;28;19928;-65
2022/05/26 10:45:16;;;;;;;;;;;22.90;49.00;;;;;;5082622;28;20003;-63
2022/05/26 10:47:47;;;;;;;;;;;22.10;49.60;;;;;;5094942;28;20292;-64
2022/05/26 10:50:12;;;;;;;;;;;21.30;51.70;;;;;;5084753;28;20414;-64
2022/05/26 10:52:43;;;;;;;;;;;21.30;51.80;;;;;;5082864;28;19927;-64
2022/05/26 10:55:11;;;;;;;;;;;21.30;51.40;;;;;;5082062;28;19928;-64
2022/05/26 10:57:40;;;;;;;;;;;21.00;52.20;;;;;;5098811;28;19999;-63
2022/05/26 11:00:07;;;;;;;;;;;20.50;53.30;;;;;;5097356;28;19924;-63
2022/05/26 11:02:37;;;;;;;;;;;20.20;57.10;;;;;;5093618;28;20404;-63
2022/05/26 11:05:09;;;;;;;;;;;20.00;57.20;;;;;;5077113;28;19924;-64
2022/05/26 11:07:43;;;;;;;;;;;19.70;57.90;;;;;;5077951;28;19924;-63
2022/05/26 11:10:17;;;;;;;;;;;19.90;59.30;;;;;;5082528;28;19924;-62
2022/05/26 11:12:48;;;;;;;;;;;19.90;59.30;;;;;;5092354;28;19928;-63
2022/05/26 11:18:19;;;;;;;;;;;19.60;59.70;;;;;;5077194;28;19936;-62
2022/05/26 11:20:50;;;;;;;;;;;19.50;59.60;;;;;;5081476;28;19920;-63
2022/05/26 11:23:17;;;;;;;;;;;19.40;59.20;;;;;;5088181;28;20468;-62
2022/05/26 11:25:48;;;;;;;;;;;19.60;60.80;;;;;;5088215;28;20039;-63
2022/05/26 11:28:32;;;;;;;;;;;19.60;60.60;;;;;;5095385;28;20364;-62
2022/05/26 11:36:34;;;;;;;;;;;19.20;64.10;;;;;;5093324;28;19924;-62
2022/05/26 11:39:01;;;;;;;;;;;19.10;64.50;;;;;;5074374;28;19977;-64
2022/05/26 11:41:30;;;;;;;;;;;19.00;65.40;;;;;;5091021;28;19943;-63
2022/05/26 11:44:10;;;;;;;;;;;18.90;66.10;;;;;;5089310;28;20322;-62
2022/05/26 11:46:41;;;;;;;;;;;18.80;66.10;;;;;;5092650;28;19946;-62
2022/05/26 11:49:10;;;;;;;;;;;18.90;67.10;;;;;;5086772;28;19920;-62
2022/05/26 11:51:38;;;;;;;;;;;18.90;66.40;;;;;;5074118;28;19920;-62
2022/05/26 11:54:04;;;;;;;;;;;18.70;66.80;;;;;;5086801;28;19920;-62
2022/05/26 11:56:32;;;;;;;;;;;18.40;67.10;;;;;;5094158;28;19934;-62
2022/05/26 11:59:16;;;;;;;;;;;18.30;68.40;;;;;;5093771;28;19920;-63
2022/05/26 12:01:44;;;;;;;;;;;18.30;66.50;;;;;;5090745;28;19927;-62
2022/05/26 12:04:27;;;;;;;;;;;18.50;65.90;;;;;;5091451;28;19927;-62
2022/05/26 12:06:57;;;;;;;;;;;18.40;65.10;;;;;;5072362;28;20910;-63
2022/05/26 12:09:41;;;;;;;;;;;18.40;65.50;;;;;;5084772;28;19930;-62
2022/05/26 12:12:12;;;;;;;;;;;18.30;64.90;;;;;;5055100;28;19924;-64
2022/05/26 12:14:46;;;;;;;;;;;18.40;65.10;;;;;;5056977;28;20019;-63
2022/05/26 12:17:30;;;;;;;;;;;18.90;64.40;;;;;;5050458;28;19932;-63
2022/05/26 12:19:57;;;;;;;;;;;18.90;64.40;;;;;;5063378;28;19921;-63
2022/05/26 12:22:29;;;;;;;;;;;19.10;64.90;;;;;;5081789;28;20395;-63
2022/05/26 12:25:06;;;;;;;;;;;18.90;63.60;;;;;;5087509;28;20392;-62
2022/05/26 12:27:51;;;;;;;;;;;18.90;62.50;;;;;;5090521;28;19928;-62
2022/05/26 12:30:35;;;;;;;;;;;19.20;62.70;;;;;;5093435;28;19966;-63
2022/05/26 12:33:08;;;;;;;;;;;19.40;61.20;;;;;;5085227;28;19928;-63
2022/05/26 12:35:51;;;;;;;;;;;19.20;61.30;;;;;;5079834;28;19921;-63
2022/05/26 12:38:29;;;;;;;;;;;20.50;60.10;;;;;;5073674;28;20364;-62
2022/05/26 12:41:15;;;;;;;;;;;22.70;55.70;;;;;;5081994;28;20007;-63
2022/05/26 12:43:59;;;;;;;;;;;22.30;52.50;;;;;;5069348;28;20295;-63
2022/05/26 12:46:27;;;;;;;;;;;21.50;52.50;;;;;;5076282;28;20303;-62
2022/05/26 12:49:01;;;;;;;;;;;20.60;54.40;;;;;;5077581;28;19925;-64
2022/05/26 12:51:32;;;;;;;;;;;20.30;55.70;;;;;;5072526;28;19920;-63
2022/05/26 12:54:00;;;;;;;;;;;20.10;58.40;;;;;;5076059;28;19924;-63
2022/05/26 12:56:44;;;;;;;;;;;19.80;57.50;;;;;;5073324;28;19936;-63
2022/05/26 12:59:11;;;;;;;;;;;20.10;57.50;;;;;;5073729;28;20473;-62
2022/05/26 13:01:37;;;;;;;;;;;20.50;57.90;;;;;;5074795;28;19920;-62
2022/05/26 13:04:04;;;;;;;;;;;20.20;57.50;;;;;;5076319;28;19930;-62
2022/05/26 13:06:31;;;;;;;;;;;20.20;56.50;;;;;;5077232;28;19929;-62
2022/05/26 13:09:12;;;;;;;;;;;20.50;56.20;;;;;;5076570;28;20360;-62
2022/05/26 13:11:46;;;;;;;;;;;20.70;56.80;;;;;;5083230;28;20005;-62
2022/05/26 13:14:28;;;;;;;;;;;20.90;53.70;;;;;;5073625;28;19921;-63
2022/05/26 13:17:04;;;;;;;;;;;21.00;54.80;;;;;;5082372;28;20456;-62
2022/05/26 13:19:30;;;;;;;;;;;21.00;55.20;;;;;;5078719;28;19955;-62
2022/05/26 13:21:56;;;;;;;;;;;20.70;55.40;;;;;;5079244;28;19921;-62
2022/05/26 13:24:27;;;;;;;;;;;20.60;55.90;;;;;;5106894;28;19943;-62
2022/05/26 13:27:00;;;;;;;;;;;20.50;56.10;;;;;;5077904;28;20008;-64
2022/05/26 13:29:26;;;;;;;;;;;20.30;55.70;;;;;;5079850;28;20068;-62
2022/05/26 13:34:44;;;;;;;;;;;19.90;57.40;;;;;;5084727;28;19920;-64
2022/05/26 13:37:18;;;;;;;;;;;19.80;56.90;;;;;;5072089;28;19920;-63
2022/05/26 13:39:43;;;;;;;;;;;19.50;55.70;;;;;;5081067;28;20296;-63
2022/05/26 13:42:09;;;;;;;;;;;19.40;56.70;;;;;;5090845;28;19920;-63
2022/05/26 13:44:38;;;;;;;;;;;19.30;57.60;;;;;;5081920;28;20000;-63
2022/05/26 13:47:06;;;;;;;;;;;19.30;57.60;;;;;;5077096;28;19971;-64
2022/05/26 13:49:37;;;;;;;;;;;19.10;56.60;;;;;;5081331;28;19947;-64
2022/05/26 13:52:19;;;;;;;;;;;19.30;57.40;;;;;;5085913;28;20528;-64
2022/05/26 13:54:52;;;;;;;;;;;19.10;57.10;;;;;;5072435;28;19921;-64
2022/05/26 13:57:20;;;;;;;;;;;19.30;58.00;;;;;;5077506;28;20015;-64
2022/05/26 13:59:48;;;;;;;;;;;19.30;57.90;;;;;;5078767;28;19928;-63
2022/05/26 14:02:19;;;;;;;;;;;19.10;58.00;;;;;;5075624;28;20410;-63
2022/05/26 14:04:56;;;;;;;;;;;19.10;57.90;;;;;;5086531;28;19932;-62
2022/05/26 14:07:34;;;;;;;;;;;19.20;58.00;;;;;;5082564;28;19933;-63
2022/05/26 14:10:05;;;;;;;;;;;19.10;57.40;;;;;;5091594;28;19920;-63
2022/05/26 14:12:31;;;;;;;;;;;19.20;58.50;;;;;;5074975;28;20291;-62
2022/05/26 14:14:56;;;;;;;;;;;19.20;56.80;;;;;;5075186;28;19920;-63
2022/05/26 14:17:28;;;;;;;;;;;19.10;58.20;;;;;;5080439;28;19924;-62
2022/05/26 14:19:58;;;;;;;;;;;19.20;59.40;;;;;;5090530;28;20286;-65
2022/05/26 14:22:25;;;;;;;;;;;19.20;58.70;;;;;;5089820;28;20014;-63
2022/05/26 14:24:53;;;;;;;;;;;19.40;58.80;;;;;;5093005;28;19920;-63
2022/05/26 14:27:29;;;;;;;;;;;19.40;58.20;;;;;;5077243;28;19932;-63
2022/05/26 14:29:59;;;;;;;;;;;19.30;59.00;;;;;;5072423;28;20425;-63
2022/05/26 14:32:24;;;;;;;;;;;19.50;59.60;;;;;;5063909;28;19931;-63
2022/05/26 14:34:52;;;;;;;;;;;19.40;60.00;;;;;;5079193;28;19925;-63
2022/05/26 14:37:19;;;;;;;;;;;19.50;60.30;;;;;;5080457;28;20306;-62
2022/05/26 14:39:45;;;;;;;;;;;19.30;58.50;;;;;;5090471;28;20360;-64
2022/05/26 14:42:15;;;;;;;;;;;19.10;59.60;;;;;;5082986;28;19927;-63
2022/05/26 14:44:41;;;;;;;;;;;18.80;57.60;;;;;;5082112;28;19951;-63
2022/05/26 14:47:07;;;;;;;;;;;18.80;58.90;;;;;;5085656;28;19981;-63
2022/05/26 14:49:34;;;;;;;;;;;18.80;59.00;;;;;;5087937;28;19928;-65
2022/05/26 14:52:01;;;;;;;;;;;18.90;59.80;;;;;;5081815;28;20014;-63
2022/05/26 14:57:14;;;;;;;;;;;18.70;59.40;;;;;;5091680;28;20380;-63
2022/05/26 14:59:40;;;;;;;;;;;18.60;60.60;;;;;;5095477;28;20625;-64
2022/05/26 15:02:06;;;;;;;;;;;18.70;60.40;;;;;;5078561;28;19958;-63
2022/05/26 15:04:31;;;;;;;;;;;18.70;60.80;;;;;;5074235;28;20384;-63
2022/05/26 15:06:58;;;;;;;;;;;18.50;60.30;;;;;;5086980;28;19931;-64
2022/05/26 15:09:25;;;;;;;;;;;18.70;61.80;;;;;;5092045;28;19924;-63